Time;durP1;ratioP1;P1;durP2;ratioP2;P2;SDS_P1;SDS_P2;PMS_P1;PMS_P2;Temp;Humidity;BMP_temperature;BMP_pressure;BME280_temperature;BME280_humidity;BME280_pressure;Samples;Min_cycle;Max_cycle;Signal;HPM_P1;HPM_P2
2022/08/05 00:01:19;;;;;;;10.80;6.03;;;29.30;82.50;;;;;;5049674;28;20052;-73
2022/08/05 00:04:23;;;;;;;14.32;5.55;;;29.30;82.80;;;;;;5050600;28;20074;-73
2022/08/05 00:07:27;;;;;;;13.73;6.88;;;29.20;83.10;;;;;;5050945;28;20047;-73
2022/08/05 00:10:31;;;;;;;14.95;6.22;;;29.20;83.50;;;;;;5049900;28;20057;-73
2022/08/05 00:13:37;;;;;;;9.55;6.10;;;29.10;83.80;;;;;;5050677;28;20036;-73
2022/08/05 00:16:42;;;;;;;15.93;6.10;;;29.00;84.20;;;;;;5049998;28;20507;-73
2022/08/05 00:19:46;;;;;;;12.35;6.60;;;28.90;84.10;;;;;;5049778;28;20044;-73
2022/08/05 00:22:50;;;;;;;16.25;6.38;;;28.80;84.10;;;;;;5050435;28;20056;-72
2022/08/05 00:25:54;;;;;;;17.67;6.40;;;28.80;84.60;;;;;;5050738;28;20044;-72
2022/08/05 00:28:58;;;;;;;16.23;6.32;;;28.80;84.80;;;;;;5050674;28;20060;-74
2022/08/05 00:32:03;;;;;;;17.92;6.80;;;28.70;85.00;;;;;;5050278;28;20389;-72
2022/08/05 00:35:07;;;;;;;12.77;6.68;;;28.50;85.60;;;;;;5050630;28;20396;-72
2022/08/05 00:38:11;;;;;;;17.33;7.43;;;28.40;85.90;;;;;;5049752;28;20044;-73
2022/08/05 00:41:33;;;;;;;21.42;7.93;;;28.50;85.90;;;;;;5050100;28;20056;-73
2022/08/05 00:44:37;;;;;;;11.55;7.30;;;28.40;85.50;;;;;;5054007;28;20052;-72
2022/08/05 00:47:41;;;;;;;15.07;7.55;;;28.40;85.60;;;;;;5053975;28;20048;-73
2022/08/05 00:50:48;;;;;;;17.98;7.47;;;28.50;85.30;;;;;;5054155;28;20052;-74
2022/08/05 00:53:52;;;;;;;20.23;7.35;;;28.60;84.90;;;;;;5053959;28;20048;-73
2022/08/05 00:56:56;;;;;;;18.27;7.68;;;28.60;85.00;;;;;;5053127;28;20048;-73
2022/08/05 01:00:01;;;;;;;17.60;8.15;;;28.60;84.80;;;;;;5053598;28;20036;-74
2022/08/05 01:03:06;;;;;;;18.80;7.95;;;28.50;85.00;;;;;;5053502;28;20055;-73
2022/08/05 01:06:10;;;;;;;26.40;7.75;;;28.50;85.50;;;;;;5053589;28;20040;-74
2022/08/05 01:09:15;;;;;;;15.32;7.60;;;28.30;86.00;;;;;;5053431;28;20389;-74
2022/08/05 01:12:20;;;;;;;16.58;7.85;;;28.30;85.90;;;;;;5053327;28;20044;-74
2022/08/05 01:15:31;;;;;;;14.25;7.30;;;28.30;85.30;;;;;;5052755;28;20044;-74
2022/08/05 01:18:42;;;;;;;15.45;7.07;;;28.30;85.60;;;;;;5053366;28;20040;-73
2022/08/05 01:21:57;;;;;;;14.77;7.72;;;28.30;84.90;;;;;;5053090;28;20051;-73
2022/08/05 01:25:22;;;;;;;14.00;7.68;;;28.40;84.40;;;;;;5053583;28;20040;-73
2022/08/05 01:28:26;;;;;;;14.82;7.20;;;28.50;84.00;;;;;;5053990;28;20048;-73
2022/08/05 01:31:42;;;;;;;19.88;7.35;;;28.40;83.90;;;;;;5053415;28;20048;-73
2022/08/05 01:35:05;;;;;;;10.48;7.43;;;28.20;83.90;;;;;;5053356;28;20044;-73
2022/08/05 01:38:10;;;;;;;15.85;7.88;;;28.10;83.80;;;;;;5052153;28;20143;-73
2022/08/05 01:41:20;;;;;;;13.07;6.18;;;28.20;83.60;;;;;;5052644;28;20060;-73
2022/08/05 01:44:25;;;;;;;15.45;7.05;;;28.30;83.30;;;;;;5052336;28;20056;-74
2022/08/05 01:47:32;;;;;;;13.63;6.85;;;28.40;83.30;;;;;;5053113;28;20044;-73
2022/08/05 01:50:39;;;;;;;16.08;6.43;;;28.40;83.70;;;;;;5052918;28;20048;-73
2022/08/05 01:53:46;;;;;;;15.07;7.97;;;28.30;84.00;;;;;;5051506;28;20511;-74
2022/08/05 01:56:51;;;;;;;20.85;8.00;;;28.10;84.20;;;;;;5052075;28;20385;-73
2022/08/05 02:00:00;;;;;;;10.90;7.07;;;28.10;84.40;;;;;;5052460;28;20604;-74
2022/08/05 02:03:12;;;;;;;16.42;7.30;;;28.00;84.40;;;;;;5052267;28;20060;-74
2022/08/05 02:06:16;;;;;;;15.95;7.10;;;28.10;84.00;;;;;;5054540;28;20048;-73
2022/08/05 02:09:21;;;;;;;14.52;7.05;;;27.90;83.90;;;;;;5052060;28;20040;-73
2022/08/05 02:12:36;;;;;;;10.30;7.15;;;27.90;83.80;;;;;;5052248;28;20523;-74
2022/08/05 02:15:46;;;;;;;14.45;6.90;;;28.00;83.50;;;;;;5052212;28;20044;-73
2022/08/05 02:19:07;;;;;;;11.77;7.70;;;28.00;83.90;;;;;;5052507;28;20492;-74
2022/08/05 02:22:16;;;;;;;15.15;6.95;;;27.90;83.90;;;;;;5039791;28;20052;-74
2022/08/05 02:25:26;;;;;;;11.77;7.47;;;27.80;84.10;;;;;;5052576;28;20044;-74
2022/08/05 02:28:36;;;;;;;16.73;8.95;;;27.70;84.90;;;;;;5051364;28;20055;-73
2022/08/05 02:31:42;;;;;;;16.20;7.88;;;27.50;85.50;;;;;;5051904;28;20044;-73
2022/08/05 02:34:46;;;;;;;12.63;7.70;;;27.50;86.20;;;;;;5052082;28;20044;-73
2022/08/05 02:37:54;;;;;;;14.13;7.55;;;27.50;86.40;;;;;;5051761;28;20044;-72
2022/08/05 02:41:00;;;;;;;12.57;7.80;;;27.50;86.20;;;;;;5039305;28;20275;-73
2022/08/05 02:44:08;;;;;;;14.82;7.85;;;27.50;86.00;;;;;;5052036;28;20052;-73
2022/08/05 02:47:14;;;;;;;13.73;7.35;;;27.60;86.00;;;;;;5051733;28;20044;-73
2022/08/05 02:50:20;;;;;;;18.02;7.90;;;27.60;86.20;;;;;;5051740;28;20063;-73
2022/08/05 02:53:25;;;;;;;16.33;8.30;;;27.70;85.80;;;;;;5051863;28;20046;-73
2022/08/05 02:56:31;;;;;;;13.90;8.90;;;27.70;86.00;;;;;;5051501;28;20048;-73
2022/08/05 02:59:36;;;;;;;14.95;8.20;;;27.60;85.90;;;;;;5050678;28;20593;-73
2022/08/05 03:02:43;;;;;;;13.30;8.80;;;27.60;86.20;;;;;;5051520;28;20051;-73
2022/08/05 03:05:48;;;;;;;12.70;8.23;;;27.50;86.20;;;;;;5051164;28;20040;-74
2022/08/05 03:08:53;;;;;;;11.38;8.55;;;27.50;86.50;;;;;;5050416;28;20500;-73
2022/08/05 03:11:57;;;;;;;14.20;9.00;;;27.50;86.30;;;;;;5051201;28;20072;-73
2022/08/05 03:15:04;;;;;;;17.90;8.75;;;27.60;85.80;;;;;;5050532;28;20040;-73
2022/08/05 03:18:09;;;;;;;16.85;9.10;;;27.60;85.80;;;;;;5050132;28;20404;-73
2022/08/05 03:21:13;;;;;;;17.83;10.10;;;27.60;86.20;;;;;;5051116;28;20040;-73
2022/08/05 03:24:19;;;;;;;14.00;10.30;;;27.50;86.10;;;;;;5050870;28;20071;-73
2022/08/05 03:27:27;;;;;;;14.45;9.77;;;27.30;87.00;;;;;;5051009;28;20424;-73
2022/08/05 03:30:32;;;;;;;20.52;10.48;;;27.20;87.40;;;;;;5051199;28;20048;-73
2022/08/05 03:33:36;;;;;;;16.40;11.10;;;27.20;87.10;;;;;;5051197;28;20040;-73
2022/08/05 03:36:41;;;;;;;16.33;10.30;;;27.00;87.40;;;;;;5051588;28;20044;-73
2022/08/05 03:39:57;;;;;;;17.25;10.55;;;27.00;87.80;;;;;;5050707;28;20503;-73
2022/08/05 03:43:01;;;;;;;18.55;10.02;;;27.00;87.40;;;;;;5050112;28;20055;-73
2022/08/05 03:46:06;;;;;;;21.35;10.40;;;27.00;87.90;;;;;;5050896;28;20048;-73
2022/08/05 03:49:10;;;;;;;17.85;9.57;;;26.90;88.00;;;;;;5050083;28;20044;-74
2022/08/05 03:52:23;;;;;;;22.52;10.18;;;26.90;88.70;;;;;;5051117;28;20044;-72
2022/08/05 03:55:33;;;;;;;17.65;10.60;;;26.90;88.60;;;;;;5050945;28;20055;-72
2022/08/05 03:58:40;;;;;;;20.95;10.05;;;26.90;89.00;;;;;;5049980;28;20484;-73
2022/08/05 04:01:48;;;;;;;18.83;10.63;;;27.00;89.10;;;;;;5049869;28;20052;-73
2022/08/05 04:04:52;;;;;;;27.17;9.57;;;27.10;88.90;;;;;;5051545;28;20048;-73
2022/08/05 04:07:58;;;;;;;19.98;11.13;;;27.20;88.90;;;;;;5050438;28;20035;-73
2022/08/05 04:11:03;;;;;;;28.85;10.65;;;27.10;89.00;;;;;;5050464;28;20056;-73
2022/08/05 04:14:08;;;;;;;23.10;10.30;;;27.00;89.40;;;;;;5050693;28;20413;-74
2022/08/05 04:17:12;;;;;;;17.83;10.98;;;26.80;90.30;;;;;;5051642;28;20044;-74
2022/08/05 04:20:20;;;;;;;18.58;11.30;;;26.90;90.60;;;;;;5054270;28;20044;-74
2022/08/05 04:23:26;;;;;;;15.60;10.82;;;26.90;90.60;;;;;;5043069;28;20060;-74
2022/08/05 04:26:30;;;;;;;24.73;11.50;;;26.90;90.60;;;;;;5042455;28;20040;-74
2022/08/05 04:29:35;;;;;;;30.23;11.95;;;26.90;90.60;;;;;;5053647;28;20055;-74
2022/08/05 04:32:39;;;;;;;24.58;11.75;;;26.90;90.90;;;;;;5054688;28;20417;-74
2022/08/05 04:35:44;;;;;;;23.73;11.07;;;26.80;90.80;;;;;;5054978;28;20040;-74
2022/08/05 04:38:48;;;;;;;20.30;10.73;;;26.80;91.00;;;;;;5055057;28;20409;-73
2022/08/05 04:41:52;;;;;;;18.80;9.57;;;26.60;90.60;;;;;;5054299;28;20052;-74
2022/08/05 04:44:56;;;;;;;16.85;9.30;;;26.50;90.40;;;;;;5054735;28;20056;-73
2022/08/05 04:48:26;;;;;;;27.02;9.35;;;26.60;90.40;;;;;;5053520;28;20402;-73
2022/08/05 04:51:31;;;;;;;21.25;9.63;;;26.90;88.60;;;;;;5053539;28;20043;-73
2022/08/05 04:54:35;;;;;;;25.45;8.13;;;27.20;87.60;;;;;;5054289;28;20044;-73
2022/08/05 04:57:39;;;;;;;35.92;8.52;;;28.00;85.80;;;;;;5053738;28;20068;-73
2022/08/05 05:00:43;;;;;;;23.63;8.02;;;28.80;82.50;;;;;;5053833;28;20044;-73
2022/08/05 05:03:47;;;;;;;19.83;7.95;;;29.60;80.70;;;;;;5054056;28;20063;-73
2022/08/05 05:06:51;;;;;;;43.75;10.80;;;30.20;78.20;;;;;;5054130;28;20044;-73
2022/08/05 05:09:55;;;;;;;27.23;9.07;;;30.40;77.80;;;;;;5053007;28;20051;-73
2022/08/05 05:13:00;;;;;;;26.88;9.13;;;31.00;76.30;;;;;;5054099;28;20032;-74
2022/08/05 05:16:04;;;;;;;22.38;8.48;;;31.00;75.80;;;;;;5052902;28;20044;-73
2022/08/05 05:19:08;;;;;;;30.40;9.02;;;30.60;77.30;;;;;;5053435;28;20060;-73
2022/08/05 05:22:12;;;;;;;22.17;9.32;;;30.60;77.70;;;;;;5053256;28;20397;-73
2022/08/05 05:25:17;;;;;;;21.00;10.45;;;30.70;77.70;;;;;;5030765;28;20044;-72
2022/08/05 05:28:21;;;;;;;25.70;10.05;;;30.30;78.50;;;;;;5053279;28;20388;-73
2022/08/05 05:31:25;;;;;;;28.30;9.98;;;30.30;79.10;;;;;;5053411;28;20040;-73
2022/08/05 05:34:29;;;;;;;29.40;9.85;;;30.10;79.70;;;;;;5053817;28;20048;-72
2022/08/05 05:37:33;;;;;;;20.35;10.30;;;30.10;80.10;;;;;;5041058;28;20036;-74
2022/08/05 05:40:37;;;;;;;16.45;9.38;;;29.90;80.60;;;;;;5053782;28;20048;-74
2022/08/05 05:43:41;;;;;;;31.15;10.93;;;30.10;80.70;;;;;;5053744;28;20055;-73
2022/08/05 05:46:45;;;;;;;25.88;10.70;;;30.20;80.60;;;;;;5053930;28;20044;-74
2022/08/05 05:49:49;;;;;;;34.35;12.65;;;30.30;80.80;;;;;;5053249;28;20072;-73
2022/08/05 05:52:53;;;;;;;20.70;11.45;;;30.20;81.40;;;;;;5052803;28;20052;-73
2022/08/05 05:55:57;;;;;;;25.52;12.18;;;30.10;81.60;;;;;;5052667;28;20056;-72
2022/08/05 05:59:02;;;;;;;22.50;12.65;;;29.60;83.30;;;;;;5052355;28;20036;-72
2022/08/05 06:02:07;;;;;;;32.30;13.75;;;29.40;84.20;;;;;;5051617;28;20048;-72
2022/08/05 06:05:13;;;;;;;23.30;11.38;;;29.60;84.50;;;;;;5052409;28;20043;-73
2022/08/05 06:08:17;;;;;;;21.92;12.77;;;29.60;84.50;;;;;;5052313;28;20056;-72
2022/08/05 06:11:21;;;;;;;24.35;13.27;;;29.90;84.00;;;;;;5053234;28;20048;-73
2022/08/05 06:14:26;;;;;;;33.25;13.13;;;30.20;83.80;;;;;;5052038;28;20056;-74
2022/08/05 06:17:29;;;;;;;24.30;11.90;;;30.30;83.50;;;;;;5052013;28;20051;-74
2022/08/05 06:20:33;;;;;;;22.38;13.02;;;30.20;83.80;;;;;;5051451;28;20048;-76
2022/08/05 06:23:37;;;;;;;29.88;12.73;;;30.30;84.10;;;;;;5052151;28;20135;-75
2022/08/05 06:26:42;;;;;;;41.20;11.32;;;30.40;84.00;;;;;;5052602;28;20039;-72
2022/08/05 06:29:46;;;;;;;25.38;10.45;;;30.50;84.40;;;;;;5051931;28;20063;-75
2022/08/05 06:32:49;;;;;;;22.10;10.18;;;30.70;84.10;;;;;;5052287;28;20064;-74
2022/08/05 06:35:54;;;;;;;22.92;10.38;;;30.90;83.40;;;;;;5052223;28;20488;-75
2022/08/05 06:38:58;;;;;;;25.88;10.25;;;31.10;82.80;;;;;;5051925;28;20047;-76
2022/08/05 06:42:02;;;;;;;20.38;9.50;;;31.20;82.90;;;;;;5050744;28;20060;-76
2022/08/05 06:45:08;;;;;;;21.73;10.25;;;31.30;84.60;;;;;;5040491;28;20052;-75
2022/08/05 06:48:12;;;;;;;17.17;9.45;;;31.40;84.20;;;;;;5052503;28;20044;-79
2022/08/05 06:51:16;;;;;;;257.23;29.65;;;31.40;83.90;;;;;;5051760;28;20048;-74
2022/08/05 06:54:20;;;;;;;19.63;9.23;;;31.50;83.70;;;;;;5055542;28;20400;-84
2022/08/05 06:57:24;;;;;;;13.75;8.32;;;31.40;83.70;;;;;;5055310;28;20044;-81
2022/08/05 07:00:30;;;;;;;18.42;7.75;;;31.70;84.10;;;;;;5056099;28;20040;-87
2022/08/05 07:03:35;;;;;;;15.15;8.13;;;31.90;83.80;;;;;;5059835;28;20404;-85
2022/08/05 07:06:40;;;;;;;19.33;7.82;;;32.40;82.40;;;;;;5054148;28;20044;-82
2022/08/05 07:09:45;;;;;;;17.40;7.93;;;32.80;81.50;;;;;;5054247;28;20052;-82
2022/08/05 07:19:37;;;;;;;16.40;7.35;;;33.00;79.90;;;;;;5052904;28;20051;-79
2022/08/05 07:22:41;;;;;;;14.95;6.95;;;32.80;79.70;;;;;;5052250;28;20669;-77
2022/08/05 07:25:45;;;;;;;15.75;7.45;;;32.90;79.30;;;;;;5054009;28;20383;-76
2022/08/05 07:28:49;;;;;;;17.88;8.05;;;33.20;79.10;;;;;;5054215;28;20408;-84
2022/08/05 07:31:53;;;;;;;18.63;7.10;;;33.40;77.90;;;;;;5050484;28;20496;-74
2022/08/05 07:34:57;;;;;;;18.55;7.28;;;33.70;77.80;;;;;;5051129;28;20401;-73
2022/08/05 07:38:02;;;;;;;11.65;6.43;;;34.00;76.30;;;;;;5051607;28;20048;-73
2022/08/05 07:41:08;;;;;;;21.88;6.85;;;34.00;76.40;;;;;;5050939;28;20052;-71
2022/08/05 07:44:12;;;;;;;17.08;6.97;;;34.30;75.30;;;;;;5050920;28;20052;-70
2022/08/05 07:47:16;;;;;;;21.23;6.65;;;34.50;74.90;;;;;;5050961;28;20048;-73
2022/08/05 07:50:20;;;;;;;16.88;7.03;;;34.70;74.30;;;;;;5050950;28;20052;-74
2022/08/05 07:53:25;;;;;;;17.50;6.00;;;34.60;74.80;;;;;;5054464;28;20048;-77
2022/08/05 07:56:29;;;;;;;13.38;6.65;;;34.50;74.00;;;;;;5055797;28;20044;-74
2022/08/05 07:59:33;;;;;;;23.85;6.38;;;34.70;73.80;;;;;;5055620;28;20507;-76
2022/08/05 08:02:37;;;;;;;14.40;6.63;;;35.10;72.60;;;;;;5055756;28;20059;-77
2022/08/05 08:05:42;;;;;;;20.63;7.50;;;35.40;71.70;;;;;;5055081;28;20389;-78
2022/08/05 08:08:46;;;;;;;28.77;8.05;;;35.00;71.60;;;;;;5055242;28;20048;-75
2022/08/05 08:11:50;;;;;;;21.83;7.45;;;35.20;72.10;;;;;;5054974;28;20432;-75
2022/08/05 08:14:54;;;;;;;18.25;6.50;;;35.40;70.80;;;;;;5053769;28;20385;-74
2022/08/05 08:17:58;;;;;;;21.70;6.60;;;35.30;70.60;;;;;;5051753;28;20047;-73
2022/08/05 08:21:02;;;;;;;21.98;6.68;;;34.90;71.10;;;;;;5053933;28;20056;-72
2022/08/05 08:24:07;;;;;;;14.15;5.88;;;35.10;70.90;;;;;;5053640;28;20044;-73
2022/08/05 08:27:10;;;;;;;13.70;6.88;;;35.40;70.70;;;;;;5054107;28;20047;-73
2022/08/05 08:30:15;;;;;;;23.95;7.20;;;35.50;70.20;;;;;;5054482;28;20036;-69
2022/08/05 08:33:19;;;;;;;19.40;8.65;;;35.60;70.30;;;;;;5054284;28;20499;-72
2022/08/05 08:36:23;;;;;;;16.55;7.55;;;35.90;70.00;;;;;;5053300;28;20301;-74
2022/08/05 08:39:27;;;;;;;17.88;7.22;;;36.00;69.50;;;;;;5054175;28;20040;-74
2022/08/05 08:42:32;;;;;;;20.08;8.15;;;36.00;69.70;;;;;;5053757;28;20723;-75
2022/08/05 08:45:37;;;;;;;22.08;7.75;;;36.00;69.80;;;;;;5053666;28;20046;-72
2022/08/05 08:48:43;;;;;;;14.48;7.70;;;36.10;69.90;;;;;;5053630;28;20495;-73
2022/08/05 08:51:48;;;;;;;23.38;7.93;;;36.10;69.80;;;;;;5054274;28;20064;-72
2022/08/05 08:54:53;;;;;;;17.27;7.10;;;36.10;69.80;;;;;;5054328;28;20067;-74
2022/08/05 08:58:01;;;;;;;7.35;4.68;;;36.00;70.00;;;;;;5053589;28;20047;-74
2022/08/05 09:01:06;;;;;;;16.60;5.35;;;36.20;69.90;;;;;;5053659;28;20048;-73
2022/08/05 09:04:12;;;;;;;8.07;4.13;;;36.10;69.60;;;;;;5053475;28;20056;-74
2022/08/05 09:07:16;;;;;;;13.95;4.15;;;36.10;69.30;;;;;;5054023;28;20608;-75
2022/08/05 09:10:21;;;;;;;5.10;3.67;;;36.20;68.60;;;;;;5054153;28;20060;-76
2022/08/05 09:13:25;;;;;;;14.05;3.72;;;36.30;69.00;;;;;;5053829;28;20044;-73
2022/08/05 09:16:30;;;;;;;8.75;3.13;;;36.50;68.40;;;;;;5053682;28;20507;-73
2022/08/05 09:19:35;;;;;;;7.28;3.65;;;36.40;68.50;;;;;;5053965;28;20397;-74
2022/08/05 09:23:12;;;;;;;8.98;4.38;;;36.30;68.50;;;;;;5053275;28;20052;-72
2022/08/05 09:26:18;;;;;;;5.57;3.95;;;36.50;68.60;;;;;;5053563;28;20033;-75
2022/08/05 09:29:37;;;;;;;12.45;4.07;;;36.50;68.30;;;;;;5053405;28;20040;-74
2022/08/05 09:32:42;;;;;;;14.10;4.97;;;36.60;68.40;;;;;;5053704;28;20392;-73
2022/08/05 09:36:00;;;;;;;15.63;3.95;;;36.60;68.40;;;;;;5053461;28;20044;-73
2022/08/05 09:39:07;;;;;;;5.57;3.55;;;36.40;68.20;;;;;;5052895;28;20048;-76
2022/08/05 09:42:17;;;;;;;9.43;3.45;;;36.30;68.30;;;;;;5053090;28;20393;-76
2022/08/05 09:45:34;;;;;;;6.57;3.70;;;36.40;67.80;;;;;;5052887;28;20511;-75
2022/08/05 09:48:38;;;;;;;5.70;3.00;;;36.40;67.00;;;;;;5052831;28;20643;-75
2022/08/05 09:51:42;;;;;;;21.33;4.60;;;36.30;66.40;;;;;;5053125;28;20043;-75
2022/08/05 09:55:09;;;;;;;11.80;3.08;;;36.30;65.90;;;;;;5054216;28;20043;-72
2022/08/05 09:58:14;;;;;;;10.48;3.50;;;36.20;66.40;;;;;;5052776;28;20395;-74
2022/08/05 10:01:18;;;;;;;13.98;3.75;;;36.30;66.00;;;;;;5052782;28;20405;-75
2022/08/05 10:04:34;;;;;;;9.10;3.05;;;36.50;65.50;;;;;;5052476;28;20052;-75
2022/08/05 10:07:54;;;;;;;6.45;2.90;;;36.50;65.10;;;;;;5052529;28;20056;-75
2022/08/05 10:11:00;;;;;;;5.30;2.95;;;36.60;65.30;;;;;;5052668;28;20040;-74
2022/08/05 10:14:24;;;;;;;8.43;2.97;;;36.30;65.80;;;;;;5052484;28;20044;-74
2022/08/05 10:17:28;;;;;;;8.57;3.13;;;36.30;66.40;;;;;;5052347;28;20044;-78
2022/08/05 10:20:44;;;;;;;9.75;3.08;;;36.30;65.70;;;;;;5052493;28;20052;-73
2022/08/05 10:23:49;;;;;;;9.82;3.03;;;36.00;65.80;;;;;;5052356;28;20047;-74
2022/08/05 10:26:55;;;;;;;10.07;2.90;;;35.90;66.20;;;;;;5052337;28;20046;-75
2022/08/05 10:29:59;;;;;;;8.60;3.22;;;36.00;66.70;;;;;;5052693;28;20048;-75
2022/08/05 10:33:05;;;;;;;7.30;3.72;;;36.10;66.50;;;;;;5052177;28;20393;-75
2022/08/05 10:36:09;;;;;;;9.32;3.28;;;36.30;65.90;;;;;;5052275;28;20055;-74
2022/08/05 10:39:20;;;;;;;5.88;3.13;;;36.30;66.10;;;;;;5050727;28;20429;-74
2022/08/05 10:42:26;;;;;;;8.80;3.15;;;36.30;65.80;;;;;;5051022;28;20120;-75
2022/08/05 10:45:34;;;;;;;4.47;2.65;;;36.40;66.60;;;;;;5051939;28;20056;-74
2022/08/05 10:48:44;;;;;;;19.52;5.18;;;36.40;66.30;;;;;;5039611;28;20048;-74
2022/08/05 10:51:56;;;;;;;6.88;3.53;;;36.40;65.80;;;;;;5051515;28;20052;-73
2022/08/05 10:55:05;;;;;;;14.32;3.63;;;36.30;65.80;;;;;;5051723;28;20404;-74
2022/08/05 10:58:10;;;;;;;8.20;3.40;;;36.30;66.90;;;;;;5052019;28;20507;-74
2022/08/05 11:01:15;;;;;;;8.43;3.22;;;36.20;66.40;;;;;;5050834;28;20044;-73
2022/08/05 11:04:22;;;;;;;6.75;3.22;;;36.00;66.30;;;;;;5051423;28;20044;-73
2022/08/05 11:07:26;;;;;;;4.43;3.00;;;36.00;67.00;;;;;;5051793;28;20040;-73
2022/08/05 11:10:32;;;;;;;16.27;4.30;;;36.00;67.10;;;;;;5050646;28;20044;-72
2022/08/05 11:13:42;;;;;;;6.57;3.40;;;36.00;67.20;;;;;;5051065;28;20408;-72
2022/08/05 11:17:18;;;;;;;8.68;3.22;;;36.00;67.20;;;;;;5050505;28;20032;-72
2022/08/05 11:20:40;;;;;;;8.20;3.15;;;36.00;66.80;;;;;;5051330;28;20071;-71
2022/08/05 11:23:52;;;;;;;9.32;4.28;;;36.00;67.50;;;;;;5051304;28;20056;-71
2022/08/05 11:27:34;;;;;;;9.27;3.50;;;36.00;67.30;;;;;;5051332;28;20055;-71
2022/08/05 11:30:57;;;;;;;8.57;3.10;;;36.00;68.00;;;;;;5050511;28;20397;-70
2022/08/05 11:34:04;;;;;;;9.82;3.95;;;35.90;67.90;;;;;;5051536;28;20063;-71
2022/08/05 11:37:08;;;;;;;12.10;3.75;;;35.80;68.20;;;;;;5051318;28;20048;-72
2022/08/05 11:40:12;;;;;;;6.65;2.80;;;35.80;68.40;;;;;;5050969;28;20051;-73
2022/08/05 11:43:20;;;;;;;5.20;3.00;;;35.80;69.90;;;;;;5051091;28;20051;-71
2022/08/05 11:46:32;;;;;;;12.15;3.67;;;35.70;69.60;;;;;;5050937;28;20040;-70
2022/08/05 11:49:37;;;;;;;7.13;3.45;;;35.70;69.90;;;;;;5051333;28;20047;-71
2022/08/05 11:52:41;;;;;;;13.88;4.07;;;35.70;70.50;;;;;;5051138;28;20036;-71
2022/08/05 11:55:56;;;;;;;9.38;3.67;;;35.70;71.40;;;;;;5050562;28;20504;-71
2022/08/05 11:59:00;;;;;;;13.93;3.72;;;35.70;70.70;;;;;;5049217;28;20048;-69
2022/08/05 12:02:06;;;;;;;14.23;3.50;;;35.90;71.60;;;;;;5049596;28;20036;-71
2022/08/05 12:05:27;;;;;;;10.68;3.78;;;36.80;69.70;;;;;;5049413;28;20052;-71
2022/08/05 12:08:31;;;;;;;6.82;3.45;;;37.90;67.60;;;;;;5049184;28;20048;-71
2022/08/05 12:11:35;;;;;;;20.63;3.40;;;38.40;65.30;;;;;;5049250;28;20503;-71
2022/08/05 12:14:41;;;;;;;9.68;3.65;;;38.40;65.30;;;;;;5050637;28;20056;-71
2022/08/05 12:17:45;;;;;;;6.20;3.05;;;38.20;64.30;;;;;;5050887;28;20052;-73
2022/08/05 12:20:50;;;;;;;9.75;3.40;;;38.50;63.60;;;;;;5050768;28;20073;-73
2022/08/05 12:24:20;;;;;;;13.85;3.30;;;38.40;62.80;;;;;;5049508;28;20391;-73
2022/08/05 12:27:26;;;;;;;6.30;2.72;;;38.40;62.40;;;;;;5049824;28;20067;-71
2022/08/05 12:30:37;;;;;;;6.63;3.13;;;38.40;61.70;;;;;;5050332;28;20048;-73
2022/08/05 12:33:41;;;;;;;9.65;3.35;;;38.60;60.30;;;;;;5050544;28;20048;-74
2022/08/05 12:36:47;;;;;;;6.50;2.90;;;38.60;60.90;;;;;;5050435;28;20037;-73
2022/08/05 12:39:52;;;;;;;10.68;3.10;;;38.40;61.10;;;;;;5054202;28;20048;-72
2022/08/05 12:42:56;;;;;;;11.65;3.53;;;38.50;60.70;;;;;;5055048;28;20048;-71
2022/08/05 12:46:00;;;;;;;10.63;3.45;;;38.70;60.30;;;;;;5054176;28;20060;-72
2022/08/05 12:49:10;;;;;;;13.98;3.80;;;38.60;60.00;;;;;;5054166;28;20044;-72
2022/08/05 12:52:16;;;;;;;7.75;3.58;;;38.50;60.30;;;;;;5053438;28;20515;-72
2022/08/05 12:55:22;;;;;;;9.50;3.22;;;38.30;60.60;;;;;;5053729;28;20052;-73
2022/08/05 12:58:26;;;;;;;10.15;3.30;;;38.20;60.70;;;;;;5053859;28;20507;-74
2022/08/05 13:01:31;;;;;;;6.80;3.55;;;38.20;60.50;;;;;;5053732;28;20052;-73
2022/08/05 13:04:37;;;;;;;6.63;3.67;;;38.40;60.30;;;;;;5053539;28;20056;-72
2022/08/05 13:07:44;;;;;;;6.82;3.50;;;38.20;60.30;;;;;;5053666;28;20048;-73
2022/08/05 13:10:48;;;;;;;8.68;3.13;;;38.00;60.10;;;;;;5053969;28;20079;-74
2022/08/05 13:13:55;;;;;;;17.70;3.42;;;38.20;59.20;;;;;;5053613;28;20035;-73
2022/08/05 13:16:59;;;;;;;22.33;3.60;;;38.00;59.00;;;;;;5053490;28;20048;-72
2022/08/05 13:20:06;;;;;;;10.80;3.10;;;37.80;59.00;;;;;;5053362;28;20040;-72
2022/08/05 13:23:10;;;;;;;20.63;4.07;;;37.80;58.60;;;;;;5053727;28;20052;-73
2022/08/05 13:26:14;;;;;;;8.00;2.60;;;38.00;58.50;;;;;;5052732;28;20044;-68
2022/08/05 13:29:21;;;;;;;8.27;2.35;;;38.20;57.20;;;;;;5053229;28;20060;-67
2022/08/05 13:32:26;;;;;;;13.32;2.50;;;38.20;55.60;;;;;;5053254;28;20401;-68
2022/08/05 13:35:31;;;;;;;5.43;2.45;;;38.10;55.30;;;;;;5053042;28;20046;-68
2022/08/05 13:38:36;;;;;;;4.00;1.80;;;37.90;54.90;;;;;;5052480;28;20064;-67
2022/08/05 13:41:40;;;;;;;12.75;2.42;;;37.80;55.20;;;;;;5052964;28;20048;-68
2022/08/05 13:44:45;;;;;;;5.72;1.90;;;38.30;55.60;;;;;;5052719;28;20052;-69
2022/08/05 13:47:49;;;;;;;9.27;2.08;;;38.30;55.30;;;;;;5052824;28;20112;-67
2022/08/05 13:50:53;;;;;;;8.77;2.03;;;38.20;55.70;;;;;;5052916;28;20055;-68
2022/08/05 13:53:57;;;;;;;9.07;2.10;;;38.50;54.40;;;;;;5053113;28;20044;-69
2022/08/05 13:57:01;;;;;;;5.18;1.77;;;38.60;54.50;;;;;;5052821;28;20044;-69
2022/08/05 14:00:06;;;;;;;4.35;1.70;;;39.50;52.40;;;;;;5052965;28;20507;-68
2022/08/05 14:03:13;;;;;;;27.48;2.78;;;39.20;53.00;;;;;;5052373;28;20047;-68
2022/08/05 14:06:17;;;;;;;10.10;2.35;;;39.20;53.30;;;;;;5052356;28;20063;-68
2022/08/05 14:09:21;;;;;;;10.98;1.75;;;39.40;53.60;;;;;;5052401;28;20040;-68
2022/08/05 14:12:26;;;;;;;6.25;1.52;;;39.60;52.00;;;;;;5052573;28;20151;-68
2022/08/05 14:15:30;;;;;;;8.85;1.58;;;39.60;51.80;;;;;;5052461;28;20047;-66
2022/08/05 14:18:34;;;;;;;16.83;2.33;;;40.10;51.30;;;;;;5052303;28;20071;-68
2022/08/05 14:21:39;;;;;;;18.15;1.92;;;40.40;51.10;;;;;;5052246;28;20056;-68
2022/08/05 14:24:43;;;;;;;5.05;1.70;;;40.00;51.60;;;;;;5050843;28;20550;-67
2022/08/05 14:27:48;;;;;;;10.45;1.50;;;40.10;51.50;;;;;;5050814;28;20044;-67
2022/08/05 14:30:52;;;;;;;4.43;1.70;;;40.00;51.20;;;;;;5051473;28;20052;-70
2022/08/05 14:33:57;;;;;;;6.47;1.65;;;40.10;50.90;;;;;;5052228;28;20036;-69
2022/08/05 14:37:04;;;;;;;10.43;2.40;;;40.40;50.50;;;;;;5050897;28;20408;-68
2022/08/05 14:40:09;;;;;;;11.30;1.95;;;40.00;50.40;;;;;;5050433;28;20052;-69
2022/08/05 14:43:14;;;;;;;5.53;1.45;;;38.90;51.20;;;;;;5051567;28;20048;-69
2022/08/05 14:46:17;;;;;;;5.45;2.20;;;38.00;52.60;;;;;;5051923;28;20048;-68
2022/08/05 14:49:23;;;;;;;10.10;1.80;;;37.40;53.20;;;;;;5051449;28;20048;-67
2022/08/05 14:52:27;;;;;;;8.57;2.17;;;36.90;55.50;;;;;;5051675;28;20093;-68
2022/08/05 14:55:31;;;;;;;10.95;2.00;;;36.40;56.10;;;;;;5050846;28;20036;-68
2022/08/05 14:58:35;;;;;;;6.72;1.58;;;36.10;56.50;;;;;;5051232;28;20507;-67
2022/08/05 15:01:40;;;;;;;5.13;1.60;;;35.90;57.20;;;;;;5051166;28;20071;-69
2022/08/05 15:04:44;;;;;;;6.05;1.85;;;35.70;56.90;;;;;;5051230;28;20056;-69
2022/08/05 15:07:48;;;;;;;10.00;2.00;;;35.50;57.90;;;;;;5051073;28;20052;-68
2022/08/05 15:10:52;;;;;;;5.43;1.63;;;35.40;58.60;;;;;;5051436;28;20043;-69
2022/08/05 15:13:56;;;;;;;11.32;2.53;;;35.20;58.40;;;;;;5050559;28;20047;-70
2022/08/05 15:17:00;;;;;;;3.60;1.58;;;35.10;59.80;;;;;;5051325;28;20055;-69
2022/08/05 15:20:05;;;;;;;5.82;1.90;;;35.00;59.90;;;;;;5050293;28;20052;-68
2022/08/05 15:23:10;;;;;;;9.98;2.22;;;34.90;60.40;;;;;;5051126;28;20496;-69
2022/08/05 15:26:16;;;;;;;4.18;1.50;;;34.80;60.20;;;;;;5051067;28;20052;-68
2022/08/05 15:29:20;;;;;;;6.03;1.83;;;34.70;60.00;;;;;;5050176;28;20508;-67
2022/08/05 15:32:25;;;;;;;2.55;1.63;;;34.50;59.90;;;;;;5050934;28;20044;-68
2022/08/05 15:35:29;;;;;;;6.70;1.60;;;36.20;57.60;;;;;;5050557;28;20052;-70
2022/08/05 15:38:33;;;;;;;5.25;1.85;;;37.50;55.00;;;;;;5049628;28;20044;-66
2022/08/05 15:41:37;;;;;;;2.95;1.60;;;38.30;54.40;;;;;;5050572;28;20048;-70
2022/08/05 15:44:41;;;;;;;11.02;2.17;;;38.20;54.20;;;;;;5050544;28;20055;-68
2022/08/05 15:47:45;;;;;;;6.43;1.98;;;38.20;54.10;;;;;;5051165;28;20044;-67
2022/08/05 15:50:49;;;;;;;3.75;1.70;;;38.40;53.10;;;;;;5050957;28;20048;-67
2022/08/05 15:53:54;;;;;;;9.75;3.28;;;38.60;53.00;;;;;;5050894;28;20069;-67
2022/08/05 15:56:58;;;;;;;10.30;3.72;;;38.70;53.30;;;;;;5050735;28;20040;-68
2022/08/05 16:00:04;;;;;;;9.20;2.80;;;38.60;53.20;;;;;;5050525;28;20040;-69
2022/08/05 16:03:08;;;;;;;6.85;2.20;;;38.70;53.30;;;;;;5049561;28;20052;-67
2022/08/05 16:06:12;;;;;;;5.85;2.17;;;38.50;55.20;;;;;;5050385;28;20055;-68